createdAt,value
2022-11-24T00:01:35.997Z,99409.56
2022-11-24T00:06:38.002Z,99406.25
2022-11-24T00:11:40.532Z,99405.72
2022-11-24T00:16:42.676Z,99413.38
2022-11-24T00:21:44.868Z,99416.66
2022-11-24T00:26:46.972Z,99428.13
2022-11-24T00:31:49.055Z,99423.19
2022-11-24T00:36:51.052Z,99434.09
2022-11-24T00:41:53.072Z,99439.28
2022-11-24T00:46:55.230Z,99442.28
2022-11-24T00:51:57.412Z,99439.78
2022-11-24T00:56:59.954Z,99446.91
2022-11-24T01:02:02.064Z,99458.13
2022-11-24T01:07:04.151Z,99450.44
2022-11-24T01:12:06.341Z,99447.72
2022-11-24T01:17:08.420Z,99449.91
2022-11-24T01:22:10.474Z,99450.97
2022-11-24T01:27:12.547Z,99462.16
2022-11-24T01:32:14.642Z,99455.84
2022-11-24T01:37:16.787Z,99456.16
2022-11-24T01:42:18.853Z,99457.22
2022-11-24T01:47:35.870Z,99468.69
2022-11-24T01:52:42.639Z,99462.94
2022-11-24T01:57:51.766Z,99464.03
2022-11-24T02:02:54.138Z,99470.59
2022-11-24T02:07:59.910Z,99473.56
2022-11-24T02:13:02.308Z,99469.53
2022-11-24T02:18:04.458Z,99464.06
2022-11-24T02:23:23.132Z,99476.63
2022-11-24T02:28:30.153Z,99482.09
2022-11-24T02:33:33.658Z,99474.16
2022-11-24T02:38:36.336Z,99471.97
2022-11-24T02:43:47.074Z,99470.03
2022-11-24T02:48:49.155Z,99461.84
2022-11-24T02:53:51.223Z,99475.72
2022-11-24T02:58:53.259Z,99475.97
2022-11-24T03:03:55.281Z,99481.97
2022-11-24T03:08:57.380Z,99489.28
2022-11-24T03:13:59.393Z,99483.50
2022-11-24T03:19:02.237Z,99477.50
2022-11-24T03:24:04.827Z,99488.91
2022-11-24T03:29:06.870Z,99499.53
2022-11-24T03:34:09.207Z,99493.75
2022-11-24T03:39:11.297Z,99502.00
2022-11-24T03:44:13.320Z,99503.88
2022-11-24T03:49:15.343Z,99499.25
2022-11-24T03:54:17.515Z,99518.31
2022-11-24T03:59:19.530Z,99519.28
2022-11-24T04:04:21.582Z,99524.69
2022-11-24T04:09:23.694Z,99521.81
2022-11-24T04:14:25.864Z,99520.41
2022-11-24T04:19:27.906Z,99527.94
2022-11-24T04:24:30.266Z,99538.84
2022-11-24T04:29:32.320Z,99542.94
2022-11-24T04:34:35.146Z,99543.94
2022-11-24T04:39:37.428Z,99546.28
2022-11-24T04:44:39.481Z,99549.63
2022-11-24T04:49:41.748Z,99553.19
2022-11-24T04:54:44.000Z,99556.88
2022-11-24T04:59:46.315Z,99571.19
2022-11-24T05:04:48.432Z,99571.19
2022-11-24T05:10:08.790Z,99574.56
2022-11-24T05:15:11.147Z,99602.22
2022-11-24T05:20:13.191Z,99600.03
2022-11-24T05:25:15.911Z,99602.75
2022-11-24T05:30:18.059Z,99612.44
2022-11-24T05:35:21.235Z,99613.09
2022-11-24T05:40:23.372Z,99615.03
2022-11-24T05:45:25.897Z,99618.91
2022-11-24T05:50:28.034Z,99618.47
2022-11-24T05:55:30.489Z,99629.06
2022-11-24T06:00:33.542Z,99641.09
2022-11-24T06:05:35.623Z,99647.16
2022-11-24T06:10:37.728Z,99649.38
2022-11-24T06:15:40.935Z,99636.88
2022-11-24T06:20:53.165Z,99660.59
2022-11-24T06:26:05.214Z,99652.44
2022-11-24T06:31:07.311Z,99658.00
2022-11-24T06:36:13.453Z,99671.03
2022-11-24T06:41:16.289Z,99683.94
2022-11-24T06:46:18.388Z,99681.25
2022-11-24T06:51:20.527Z,99688.69
2022-11-24T06:56:22.849Z,99678.06
2022-11-24T07:01:27.257Z,99698.78
2022-11-24T07:06:29.366Z,99703.97
2022-11-24T07:11:31.457Z,99711.97
2022-11-24T07:16:33.959Z,99722.06
2022-11-24T07:21:36.006Z,99713.50
2022-11-24T07:26:38.082Z,99724.75
2022-11-24T07:31:40.245Z,99731.06
2022-11-24T07:36:42.939Z,99761.09
2022-11-24T07:41:45.017Z,99749.72
2022-11-24T07:46:53.510Z,99749.28
2022-11-24T07:51:55.530Z,99750.41
2022-11-24T07:56:57.604Z,99742.78
2022-11-24T08:01:59.796Z,99743.38
2022-11-24T08:07:02.583Z,99756.19
2022-11-24T08:12:05.305Z,99758.19
2022-11-24T08:17:07.412Z,99774.47
2022-11-24T08:22:09.757Z,99781.66
2022-11-24T08:27:12.672Z,99788.25
2022-11-24T08:32:21.758Z,99776.25
2022-11-24T08:37:26.388Z,99784.72
2022-11-24T08:42:28.848Z,99791.59
2022-11-24T08:47:30.980Z,99793.84
2022-11-24T08:52:33.157Z,99807.88
2022-11-24T08:57:35.291Z,99802.09
2022-11-24T09:02:37.420Z,99811.37
2022-11-24T09:07:39.471Z,99815.72
2022-11-24T09:12:43.612Z,99802.44
2022-11-24T09:17:46.319Z,99814.12
2022-11-24T09:22:48.481Z,99807.59
2022-11-24T09:27:51.482Z,99822.19
2022-11-24T09:32:55.880Z,99816.28
2022-11-24T09:37:57.936Z,99822.28
2022-11-24T09:43:17.911Z,99818.31
2022-11-24T09:48:30.574Z,99822.41
2022-11-24T09:54:13.482Z,99819.56
2022-11-24T09:59:26.341Z,99820.34
2022-11-24T10:04:34.068Z,99819.88
2022-11-24T10:10:04.077Z,99825.34
2022-11-24T10:15:22.568Z,99836.47
2022-11-24T10:20:28.091Z,99822.97
2022-11-24T10:25:36.093Z,99823.94
2022-11-24T10:30:38.500Z,99823.66
2022-11-24T10:35:45.977Z,99840.31
2022-11-24T10:40:57.752Z,99841.44
2022-11-24T10:46:15.659Z,99844.75
2022-11-24T10:51:42.498Z,99833.59
2022-11-24T10:56:46.184Z,99843.75
2022-11-24T11:01:48.582Z,99842.97
2022-11-24T11:06:50.678Z,99835.38
2022-11-24T11:11:53.698Z,99861.38
2022-11-24T11:16:59.902Z,99868.00
2022-11-24T11:22:04.678Z,99847.78
2022-11-24T11:27:26.567Z,99874.91
2022-11-24T11:37:51.596Z,99876.56
2022-11-24T11:43:22.583Z,99877.97
2022-11-24T11:48:32.410Z,99890.03
2022-11-24T11:53:45.041Z,99882.06
2022-11-24T11:59:06.534Z,99884.56
2022-11-24T12:04:46.185Z,99893.31
2022-11-24T12:10:13.725Z,99884.19
2022-11-24T12:16:07.330Z,99873.31
2022-11-24T12:21:26.776Z,99875.38
2022-11-24T12:26:44.109Z,99876.06
2022-11-24T12:32:07.924Z,99883.25
2022-11-24T12:37:22.993Z,99896.00
2022-11-24T12:42:43.899Z,99896.88
2022-11-24T12:48:23.778Z,99902.63
2022-11-24T12:53:30.910Z,99908.38
2022-11-24T12:58:58.498Z,99908.84
2022-11-24T13:04:43.204Z,99907.16
2022-11-24T13:10:40.109Z,99903.84
2022-11-24T13:21:30.994Z,99908.38
2022-11-24T13:26:42.373Z,99922.06
2022-11-24T13:31:44.497Z,99921.78
2022-11-24T13:36:53.874Z,99923.97
2022-11-24T13:42:04.981Z,99919.88
2022-11-24T13:47:28.930Z,99929.75
2022-11-24T13:52:40.175Z,99942.34
2022-11-24T13:57:51.699Z,99939.56
2022-11-24T14:02:59.604Z,99949.16
2022-11-24T14:08:02.260Z,99950.50
2022-11-24T14:13:22.514Z,99953.50
2022-11-24T14:18:24.581Z,99960.09
2022-11-24T14:23:26.861Z,99969.44
2022-11-24T14:28:29.379Z,99963.44
2022-11-24T14:33:31.556Z,99964.69
2022-11-24T14:38:34.182Z,99961.28
2022-11-24T14:43:36.259Z,99969.44
2022-11-24T14:48:49.610Z,99971.84
2022-11-24T14:53:55.328Z,99985.75
2022-11-24T14:58:58.838Z,99998.56
2022-11-24T15:04:22.079Z,100009.72
2022-11-24T15:09:43.059Z,100029.34
2022-11-24T15:14:54.553Z,100026.78
2022-11-24T15:20:17.619Z,100035.44
2022-11-24T15:25:33.986Z,100029.47
2022-11-24T15:30:37.103Z,100031.84
2022-11-24T15:35:39.232Z,100033.22
2022-11-24T15:40:44.607Z,100025.47
2022-11-24T15:45:46.755Z,100038.72
2022-11-24T15:50:49.477Z,100040.25
2022-11-24T15:55:52.691Z,100047.16
2022-11-24T16:00:54.956Z,100050.87
2022-11-24T16:05:57.673Z,100047.97
2022-11-24T16:10:59.746Z,100055.56
2022-11-24T16:16:02.122Z,100063.19
2022-11-24T16:21:04.239Z,100063.03
2022-11-24T16:26:07.211Z,100059.91
2022-11-24T16:31:09.462Z,100063.38
2022-11-24T16:36:11.982Z,100069.59
2022-11-24T16:41:14.419Z,100080.75
2022-11-24T16:46:21.826Z,100086.09
2022-11-24T16:51:24.615Z,100078.28
2022-11-24T16:56:28.319Z,100093.06
2022-11-24T17:01:30.748Z,100086.31
2022-11-24T17:06:33.900Z,100099.09
2022-11-24T17:11:35.984Z,100104.41
2022-11-24T17:16:38.739Z,100110.75
2022-11-24T17:21:41.019Z,100118.28
2022-11-24T17:26:48.998Z,100122.00
2022-11-24T17:31:51.414Z,100131.75
2022-11-24T17:36:53.537Z,100120.84
2022-11-24T17:41:55.604Z,100131.50
2022-11-24T17:46:58.977Z,100135.28
2022-11-24T17:52:01.098Z,100129.91
2022-11-24T17:57:03.221Z,100144.44
2022-11-24T18:02:05.308Z,100159.63
2022-11-24T18:07:07.659Z,100163.75
2022-11-24T18:12:09.905Z,100159.13
2022-11-24T18:17:12.032Z,100183.25
2022-11-24T18:22:14.129Z,100182.25
2022-11-24T18:27:16.337Z,100196.84
2022-11-24T18:32:18.414Z,100187.94
2022-11-24T18:37:20.541Z,100201.38
2022-11-24T18:42:25.597Z,100203.59
2022-11-24T18:47:27.973Z,100219.53
2022-11-24T18:52:30.050Z,100222.91
2022-11-24T18:57:32.189Z,100226.06
2022-11-24T19:02:34.712Z,100238.62
2022-11-24T19:07:39.259Z,100236.97
2022-11-24T19:12:41.585Z,100233.19
2022-11-24T19:17:47.164Z,100236.13
2022-11-24T19:22:49.502Z,100244.78
2022-11-24T19:27:51.554Z,100263.94
2022-11-24T19:32:53.848Z,100262.75
2022-11-24T19:37:55.977Z,100273.28
2022-11-24T19:42:58.406Z,100257.44
2022-11-24T19:48:00.491Z,100274.84
2022-11-24T19:53:02.542Z,100276.94
2022-11-24T19:58:04.603Z,100287.47
2022-11-24T20:03:06.650Z,100300.38
2022-11-24T20:08:08.882Z,100305.91
2022-11-24T20:13:10.929Z,100307.34
2022-11-24T20:18:12.975Z,100320.47
2022-11-24T20:23:15.177Z,100335.34
2022-11-24T20:28:17.233Z,100330.16
2022-11-24T20:33:19.294Z,100347.03
2022-11-24T20:38:21.418Z,100361.56
2022-11-24T20:43:23.602Z,100359.41
2022-11-24T20:48:25.700Z,100367.72
2022-11-24T20:53:27.804Z,100362.41
2022-11-24T20:58:29.970Z,100368.22
2022-11-24T21:03:32.559Z,100379.66
2022-11-24T21:08:38.976Z,100377.53
2022-11-24T21:13:43.825Z,100370.66
2022-11-24T21:18:47.256Z,100377.91
2022-11-24T21:23:49.713Z,100389.06
2022-11-24T21:28:51.779Z,100384.16
2022-11-24T21:33:54.754Z,100386.50
2022-11-24T21:38:58.536Z,100404.44
2022-11-24T21:44:01.374Z,100397.72
2022-11-24T21:49:03.886Z,100399.34
2022-11-24T21:54:06.089Z,100395.19
2022-11-24T21:59:08.222Z,100398.66
2022-11-24T22:04:10.350Z,100405.53
2022-11-24T22:09:17.597Z,100402.06
2022-11-24T22:14:20.228Z,100403.75
2022-11-24T22:19:22.257Z,100411.00
2022-11-24T22:24:27.340Z,100414.28
2022-11-24T22:29:29.668Z,100420.63
2022-11-24T22:34:31.728Z,100429.91
2022-11-24T22:39:33.765Z,100429.31
2022-11-24T22:44:36.066Z,100451.69
2022-11-24T22:49:38.319Z,100441.50
2022-11-24T22:54:40.535Z,100448.97
2022-11-24T22:59:42.578Z,100453.53
2022-11-24T23:04:44.630Z,100447.66
2022-11-24T23:09:47.716Z,100455.94
2022-11-24T23:14:49.779Z,100455.09
2022-11-24T23:19:52.013Z,100464.25
2022-11-24T23:24:54.085Z,100469.03
2022-11-24T23:29:56.147Z,100471.19
2022-11-24T23:34:58.216Z,100475.00
2022-11-24T23:40:00.283Z,100472.62
2022-11-24T23:45:02.482Z,100490.34
2022-11-24T23:50:08.427Z,100471.78
2022-11-24T23:55:10.508Z,100478.50
